Time;durP1;ratioP1;P1;durP2;ratioP2;P2;SDS_P1;SDS_P2;PMS_P1;PMS_P2;Temp;Humidity;BMP_temperature;BMP_pressure;BME280_temperature;BME280_humidity;BME280_pressure;Samples;Min_cycle;Max_cycle;Signal;HPM_P1;HPM_P2
2022/05/09 00:00:28;;;;;;;16.52;9.45;;;;;;;11.31;85.84;100587.47;5114906;28;20062;-74
2022/05/09 00:02:53;;;;;;;15.25;9.27;;;;;;;11.21;86.56;100586.94;5114958;28;20619;-74
2022/05/09 00:05:22;;;;;;;14.18;8.93;;;;;;;11.07;86.75;100568.28;5115070;27;20470;-74
2022/05/09 00:07:48;;;;;;;13.73;8.70;;;;;;;10.99;87.01;100576.38;5114591;28;20030;-74
2022/05/09 00:10:16;;;;;;;16.00;9.30;;;;;;;11.07;87.24;100606.53;5114908;28;20019;-74
2022/05/09 00:12:42;;;;;;;12.70;9.43;;;;;;;11.03;87.39;100597.13;5114380;28;20103;-75
2022/05/09 00:15:08;;;;;;;14.00;9.05;;;;;;;11.02;87.08;100595.44;5114979;28;20028;-74
2022/05/09 00:17:34;;;;;;;13.48;9.10;;;;;;;11.05;86.84;100606.59;5114792;28;20538;-74
2022/05/09 00:20:00;;;;;;;13.50;8.70;;;;;;;10.96;86.96;100596.50;5114762;28;20020;-74
2022/05/09 00:22:25;;;;;;;13.50;9.13;;;;;;;10.96;86.89;100599.94;5114595;28;20039;-74
2022/05/09 00:24:50;;;;;;;18.20;9.88;;;;;;;10.90;86.50;100586.25;5114342;28;20035;-74
2022/05/09 00:27:16;;;;;;;13.13;8.15;;;;;;;10.96;86.05;100607.75;5114459;28;20085;-74
2022/05/09 00:29:41;;;;;;;14.15;8.68;;;;;;;10.92;85.97;100605.31;5113156;28;20028;-74
2022/05/09 00:32:07;;;;;;;13.52;9.15;;;;;;;10.94;85.79;100609.56;5114445;28;20027;-74
2022/05/09 00:34:37;;;;;;;15.23;9.00;;;;;;;10.86;85.56;100597.69;5114524;28;20080;-75
2022/05/09 00:37:02;;;;;;;14.88;9.07;;;;;;;10.68;85.21;100579.13;5114339;28;20480;-74
2022/05/09 00:39:28;;;;;;;17.25;9.20;;;;;;;10.78;85.10;100600.53;5114157;28;20030;-74
2022/05/09 00:41:53;;;;;;;17.05;8.43;;;;;;;10.78;85.52;100613.56;5113851;28;20046;-74
2022/05/09 00:44:27;;;;;;;15.48;8.07;;;;;;;10.81;85.58;100618.69;5114591;28;20027;-74
2022/05/09 00:46:55;;;;;;;15.27;8.25;;;;;;;10.68;85.62;100609.56;5113505;28;20487;-74
2022/05/09 00:49:26;;;;;;;17.15;8.98;;;;;;;10.74;85.62;100625.84;5114144;28;20028;-74
2022/05/09 00:52:04;;;;;;;13.75;8.10;;;;;;;10.72;85.69;100627.63;5112635;28;20024;-74
2022/05/09 00:55:13;;;;;;;13.60;8.02;;;;;;;10.69;85.46;100629.50;5113776;28;20023;-75
2022/05/09 00:57:50;;;;;;;15.27;8.90;;;;;;;10.56;85.27;100618.59;5113868;28;20089;-74
2022/05/09 01:00:18;;;;;;;12.32;8.63;;;;;;;10.52;85.42;100622.19;5113971;28;20035;-75
2022/05/09 01:02:48;;;;;;;14.75;9.20;;;;;;;10.46;85.99;100619.78;5113633;28;20032;-74
2022/05/09 01:05:15;;;;;;;16.77;8.80;;;;;;;10.38;86.34;100619.19;5114095;28;20094;-74
2022/05/09 01:07:42;;;;;;;15.80;9.32;;;;;;;10.38;86.72;100622.63;5113698;28;20019;-75
2022/05/09 01:10:12;;;;;;;13.57;8.27;;;;;;;10.29;87.05;100619.47;5113746;28;20027;-74
2022/05/09 01:12:39;;;;;;;16.20;8.65;;;;;;;10.30;87.21;100635.03;5113698;28;20023;-74
2022/05/09 01:15:12;;;;;;;13.70;8.63;;;;;;;10.17;87.42;100618.03;5113554;28;20115;-74
2022/05/09 01:17:39;;;;;;;15.60;8.90;;;;;;;10.15;87.70;100628.47;5113671;28;20085;-75
2022/05/09 01:20:07;;;;;;;13.88;8.18;;;;;;;10.11;87.15;100623.41;5113574;28;20067;-74
2022/05/09 01:22:34;;;;;;;14.27;8.70;;;;;;;10.16;87.01;100638.00;5113376;28;20096;-74
2022/05/09 01:25:03;;;;;;;15.43;9.10;;;;;;;10.09;87.01;100636.47;5113195;28;20045;-74
2022/05/09 01:27:34;;;;;;;18.33;8.95;;;;;;;10.05;87.72;100642.66;5113365;28;20024;-74
2022/05/09 01:29:59;;;;;;;16.60;10.20;;;;;;;9.92;88.46;100633.50;5111614;28;20574;-74
2022/05/09 01:32:32;;;;;;;16.67;8.80;;;;;;;9.92;88.79;100636.09;5113317;28;20093;-74
2022/05/09 01:35:07;;;;;;;15.88;9.13;;;;;;;9.76;89.79;100633.06;5113050;28;20515;-74
2022/05/09 01:37:35;;;;;;;17.40;9.27;;;;;;;9.79;89.84;100648.59;5113102;28;20035;-75
2022/05/09 01:40:00;;;;;;;18.00;8.88;;;;;;;9.66;90.15;100642.03;5112749;28;20035;-74
2022/05/09 01:42:26;;;;;;;16.60;9.45;;;;;;;9.63;89.84;100648.16;5112891;28;20032;-74
2022/05/09 01:44:51;;;;;;;13.20;8.13;;;;;;;9.63;89.84;100647.31;5112892;28;20023;-74
2022/05/09 01:50:01;;;;;;;15.23;8.43;;;;;;;9.50;89.31;100637.22;5112650;28;20042;-74
2022/05/09 01:52:26;;;;;;;13.57;8.25;;;;;;;9.56;89.22;100654.41;5112709;28;20114;-74
2022/05/09 01:54:52;;;;;;;18.23;7.88;;;;;;;9.46;88.84;100642.53;5112443;28;20082;-75
2022/05/09 01:57:17;;;;;;;12.07;7.20;;;;;;;9.51;88.36;100651.06;5112960;28;20035;-74
2022/05/09 01:59:44;;;;;;;16.17;7.28;;;;;;;9.50;87.66;100654.56;5112502;28;20028;-74
2022/05/09 02:02:14;;;;;;;14.52;7.13;;;;;;;9.44;87.82;100634.78;5112544;28;20061;-74
2022/05/09 02:04:40;;;;;;;16.13;7.70;;;;;;;9.45;87.74;100640.84;5112816;28;20068;-74
2022/05/09 02:07:09;;;;;;;18.92;7.63;;;;;;;9.41;87.58;100641.81;5112520;28;20517;-74
2022/05/09 02:09:44;;;;;;;14.82;7.60;;;;;;;9.43;87.38;100645.22;5112889;28;20026;-74
2022/05/09 02:12:11;;;;;;;15.35;7.57;;;;;;;9.38;87.48;100653.13;5112680;28;20032;-74
2022/05/09 02:14:37;;;;;;;14.15;6.80;;;;;;;9.37;86.84;100656.63;5112933;28;20059;-74
2022/05/09 02:17:04;;;;;;;15.02;7.20;;;;;;;9.35;87.16;100663.59;5112458;28;20508;-74
2022/05/09 02:19:30;;;;;;;13.45;7.65;;;;;;;9.35;87.73;100657.56;5112658;28;20099;-74
2022/05/09 02:21:55;;;;;;;11.15;6.65;;;;;;;9.25;88.37;100651.75;5111969;28;20165;-74
2022/05/09 02:24:22;;;;;;;16.40;8.43;;;;;;;9.23;89.16;100657.00;5112432;28;20031;-74
2022/05/09 02:26:48;;;;;;;13.98;7.50;;;;;;;9.13;89.33;100660.69;5112331;28;20434;-74
2022/05/09 02:29:13;;;;;;;15.02;7.65;;;;;;;9.14;89.60;100662.44;5112460;28;20024;-74
2022/05/09 02:31:39;;;;;;;14.35;7.47;;;;;;;9.04;89.91;100658.31;5112338;28;20023;-76
2022/05/09 02:34:04;;;;;;;14.43;7.93;;;;;;;9.08;89.75;100662.56;5111956;28;20020;-75
2022/05/09 02:36:29;;;;;;;11.70;6.80;;;;;;;9.07;89.90;100663.47;5112202;28;20039;-75
2022/05/09 02:38:55;;;;;;;12.38;7.30;;;;;;;9.15;89.75;100671.06;5112126;28;20077;-75
2022/05/09 02:41:22;;;;;;;12.68;7.22;;;;;;;9.14;90.08;100669.34;5112310;28;20028;-76
2022/05/09 02:43:47;;;;;;;15.38;7.05;;;;;;;9.03;89.84;100650.59;5112184;28;20426;-75
2022/05/09 02:46:13;;;;;;;9.35;6.80;;;;;;;9.16;89.52;100672.78;5112039;28;20042;-75
2022/05/09 02:48:38;;;;;;;14.40;7.85;;;;;;;9.07;89.19;100660.88;5112125;28;20073;-75
2022/05/09 02:51:06;;;;;;;18.38;7.57;;;;;;;9.11;89.31;100670.28;5111821;28;20019;-76
2022/05/09 02:53:32;;;;;;;13.70;6.95;;;;;;;9.06;89.46;100660.88;5112382;28;20619;-75
2022/05/09 02:55:58;;;;;;;13.88;7.72;;;;;;;9.07;89.49;100668.66;5112036;28;20028;-75
2022/05/09 02:58:23;;;;;;;15.38;7.72;;;;;;;9.01;89.89;100668.78;5112264;28;20043;-75
2022/05/09 03:00:50;;;;;;;16.33;7.30;;;;;;;8.90;90.43;100658.66;5111774;28;20051;-75
2022/05/09 03:05:59;;;;;;;12.20;6.50;;;;;;;8.81;90.85;100669.28;5112047;28;20490;-75
2022/05/09 03:08:25;;;;;;;11.25;6.75;;;;;;;8.71;90.45;100652.19;5112024;28;20106;-75
2022/05/09 03:10:50;;;;;;;15.70;6.85;;;;;;;8.75;90.54;100661.59;5111820;28;20096;-76
2022/05/09 03:13:16;;;;;;;13.32;7.43;;;;;;;8.83;90.13;100677.03;5111995;28;20061;-75
2022/05/09 03:15:44;;;;;;;13.48;6.72;;;;;;;8.77;90.05;100672.84;5115182;28;20098;-76
2022/05/09 03:18:11;;;;;;;13.52;6.60;;;;;;;8.81;90.17;100684.88;5115843;28;20453;-75
2022/05/09 03:20:36;;;;;;;15.63;7.97;;;;;;;8.75;90.12;100679.78;5115736;28;20084;-75
2022/05/09 03:23:04;;;;;;;11.68;6.78;;;;;;;8.79;90.06;100690.97;5115597;28;20036;-75
2022/05/09 03:25:31;;;;;;;16.40;6.47;;;;;;;8.71;90.30;100683.34;5115871;28;20019;-75
2022/05/09 03:27:56;;;;;;;21.00;7.53;;;;;;;8.67;90.12;100668.72;5115667;28;20057;-75
2022/05/09 03:30:22;;;;;;;16.42;7.18;;;;;;;8.79;90.02;100686.63;5115769;28;20473;-75
2022/05/09 03:32:48;;;;;;;11.98;6.63;;;;;;;8.76;89.93;100694.47;5115376;28;20027;-75
2022/05/09 03:35:14;;;;;;;12.13;6.93;;;;;;;8.77;89.74;100696.22;5115422;28;20076;-75
2022/05/09 03:37:40;;;;;;;12.60;6.93;;;;;;;8.80;89.95;100696.13;5115593;28;20031;-76
2022/05/09 03:40:06;;;;;;;12.38;7.45;;;;;;;8.80;89.80;100700.47;5115200;28;20027;-75
2022/05/09 03:42:32;;;;;;;14.93;7.05;;;;;;;8.78;89.60;100697.06;5115397;28;20027;-75
2022/05/09 03:44:58;;;;;;;12.70;6.30;;;;;;;8.72;89.71;100691.13;5115110;28;20129;-76
2022/05/09 03:47:23;;;;;;;18.63;7.50;;;;;;;8.77;89.98;100692.75;5115189;28;20138;-75
2022/05/09 03:49:50;;;;;;;13.50;7.13;;;;;;;8.76;89.85;100694.47;5115277;28;20106;-75
2022/05/09 03:52:16;;;;;;;14.85;7.35;;;;;;;8.83;89.50;100696.06;5115337;28;20047;-75
2022/05/09 03:54:42;;;;;;;16.92;6.18;;;;;;;8.99;89.34;100709.56;5115271;28;20387;-75
2022/05/09 03:57:07;;;;;;;17.23;7.28;;;;;;;9.04;88.68;100699.06;5114892;28;20686;-75
2022/05/09 03:59:33;;;;;;;15.63;7.03;;;;;;;9.26;87.73;100710.63;5115111;28;20035;-75
2022/05/09 04:01:58;;;;;;;14.93;7.35;;;;;;;9.53;86.77;100713.47;5114698;28;20460;-75
2022/05/09 04:04:24;;;;;;;11.43;6.30;;;;;;;9.88;85.38;100705.59;5115206;28;20793;-75
2022/05/09 04:06:52;;;;;;;16.02;7.40;;;;;;;10.30;84.21;100692.31;5114950;28;20039;-75
2022/05/09 04:09:18;;;;;;;11.77;6.47;;;;;;;10.89;82.15;100710.50;5114906;28;20023;-76
2022/05/09 04:11:45;;;;;;;8.60;5.72;;;;;;;11.49;78.97;100703.38;5114645;28;20032;-76
2022/05/09 04:14:11;;;;;;;12.48;6.35;;;;;;;12.57;73.86;100710.88;5114418;27;20055;-76
2022/05/09 04:16:52;;;;;;;12.18;6.18;;;;;;;13.55;67.76;100707.84;5114620;28;20120;-76
2022/05/09 04:19:18;;;;;;;12.50;6.18;;;;;;;14.27;63.20;100703.84;5114942;28;20530;-76
2022/05/09 04:21:44;;;;;;;13.23;5.70;;;;;;;14.38;63.01;100718.19;5114653;28;20076;-76
2022/05/09 04:24:10;;;;;;;11.32;6.10;;;;;;;14.25;61.48;100708.31;5114420;28;20589;-76
2022/05/09 04:26:35;;;;;;;13.43;6.20;;;;;;;14.15;61.63;100713.09;5114309;28;20028;-76
2022/05/09 04:29:01;;;;;;;12.40;7.63;;;;;;;14.31;62.46;100714.13;5114098;28;20398;-76
2022/05/09 04:31:28;;;;;;;12.25;7.38;;;;;;;14.56;61.78;100724.38;5114040;28;20157;-76
2022/05/09 04:33:55;;;;;;;9.00;5.65;;;;;;;14.90;60.53;100725.41;5114357;28;20032;-76
2022/05/09 04:36:21;;;;;;;12.07;6.03;;;;;;;15.75;57.18;100733.50;5114514;28;20023;-76
2022/05/09 04:38:50;;;;;;;9.38;5.47;;;;;;;16.90;53.43;100717.78;5114437;28;20068;-76
2022/05/09 04:41:17;;;;;;;11.90;6.47;;;;;;;17.90;49.28;100733.09;5113965;28;20042;-76
2022/05/09 04:43:42;;;;;;;11.77;6.03;;;;;;;17.58;47.98;100732.34;5113559;28;20428;-76
2022/05/09 04:46:08;;;;;;;13.32;6.15;;;;;;;16.89;50.08;100736.25;5114070;28;20133;-76
2022/05/09 04:48:34;;;;;;;15.38;6.03;;;;;;;16.66;51.13;100725.19;5113928;28;20162;-76
2022/05/09 04:51:00;;;;;;;8.82;5.93;;;;;;;16.44;51.57;100740.44;5113569;28;20034;-77
2022/05/09 04:53:26;;;;;;;10.38;5.78;;;;;;;16.30;52.26;100733.28;5113898;28;20027;-76
2022/05/09 04:55:54;;;;;;;10.65;5.78;;;;;;;16.29;52.70;100733.38;5114272;28;20028;-77
2022/05/09 04:58:20;;;;;;;14.45;6.40;;;;;;;16.89;51.61;100746.78;5113770;28;20409;-76
2022/05/09 05:00:46;;;;;;;10.90;6.13;;;;;;;18.18;48.98;100735.75;5114052;28;20031;-76
2022/05/09 05:03:12;;;;;;;12.68;5.88;;;;;;;19.11;44.50;100725.56;5113687;28;20415;-76
2022/05/09 05:05:39;;;;;;;11.02;5.78;;;;;;;19.24;44.25;100749.38;5113900;28;20053;-77
2022/05/09 05:08:05;;;;;;;12.63;6.50;;;;;;;18.48;45.05;100740.09;5112282;28;20489;-77
2022/05/09 05:10:31;;;;;;;16.88;6.15;;;;;;;17.85;47.05;100732.53;5113650;27;20035;-76
2022/05/09 05:12:58;;;;;;;11.80;5.88;;;;;;;17.28;48.08;100743.72;5113351;28;20023;-77
2022/05/09 05:15:25;;;;;;;12.88;5.95;;;;;;;16.92;48.92;100746.63;5113794;28;20028;-77
2022/05/09 05:17:51;;;;;;;12.38;6.47;;;;;;;17.11;50.22;100741.19;5113753;28;20028;-77
2022/05/09 05:20:17;;;;;;;12.60;6.85;;;;;;;18.07;47.51;100739.97;5113350;28;20080;-76
2022/05/09 05:22:47;;;;;;;11.50;6.00;;;;;;;19.60;43.90;100739.03;5113416;28;20085;-76
2022/05/09 05:25:14;;;;;;;16.15;7.68;;;;;;;20.73;40.69;100734.81;5113055;28;20114;-77
2022/05/09 05:27:40;;;;;;;10.43;6.78;;;;;;;20.38;40.54;100754.84;5113543;28;20578;-76
2022/05/09 05:30:07;;;;;;;11.07;6.57;;;;;;;19.07;42.57;100747.84;5111944;28;20036;-77
2022/05/09 05:32:36;;;;;;;11.80;6.57;;;;;;;18.77;44.21;100748.00;5113416;28;20081;-77
2022/05/09 05:35:06;;;;;;;11.52;6.30;;;;;;;18.64;44.60;100742.63;5112942;28;20406;-76
2022/05/09 05:37:32;;;;;;;11.35;6.05;;;;;;;18.95;44.39;100765.31;5112620;28;20035;-76
2022/05/09 05:39:58;;;;;;;10.60;6.63;;;;;;;19.89;41.71;100762.72;5112930;28;20088;-76
2022/05/09 05:42:24;;;;;;;11.52;5.75;;;;;;;21.50;38.14;100765.38;5113131;28;20479;-77
2022/05/09 05:44:50;;;;;;;10.02;6.22;;;;;;;22.59;35.88;100765.84;5113190;28;20044;-76
2022/05/09 05:47:18;;;;;;;13.70;6.22;;;;;;;22.23;35.92;100777.53;5112879;28;20043;-76
2022/05/09 05:49:44;;;;;;;11.13;5.88;;;;;;;21.28;37.68;100760.81;5113161;28;20054;-76
2022/05/09 05:52:11;;;;;;;12.73;6.97;;;;;;;20.81;38.57;100766.88;5112834;28;20480;-76
2022/05/09 05:54:40;;;;;;;12.55;6.53;;;;;;;20.40;39.42;100760.91;5113179;28;20100;-76
2022/05/09 05:57:07;;;;;;;10.88;6.22;;;;;;;20.40;39.65;100763.56;5112865;28;20023;-76
2022/05/09 05:59:32;;;;;;;13.40;6.60;;;;;;;21.08;38.42;100767.56;5112981;28;20024;-76
2022/05/09 06:01:58;;;;;;;11.52;6.05;;;;;;;23.16;35.28;100772.78;5112477;28;20373;-76
2022/05/09 06:04:23;;;;;;;12.52;6.43;;;;;;;22.78;34.71;100753.75;5112700;28;20027;-76
2022/05/09 06:06:49;;;;;;;10.82;6.15;;;;;;;22.70;35.41;100775.63;5112551;28;20087;-75
2022/05/09 06:09:15;;;;;;;11.45;7.00;;;;;;;22.71;35.40;100766.66;5112339;28;20023;-76
2022/05/09 06:11:41;;;;;;;10.65;6.40;;;;;;;23.02;35.96;100781.03;5112731;28;20035;-75
2022/05/09 06:14:08;;;;;;;10.68;6.32;;;;;;;22.84;34.78;100786.00;5112455;28;20408;-75
2022/05/09 06:16:35;;;;;;;11.70;7.15;;;;;;;23.87;33.94;100774.94;5112851;28;20035;-75
2022/05/09 06:19:00;;;;;;;10.98;6.53;;;;;;;25.54;30.98;100774.44;5112368;28;20031;-75
2022/05/09 06:21:27;;;;;;;10.25;5.78;;;;;;;26.54;29.09;100782.00;5112261;28;20057;-75
2022/05/09 06:23:53;;;;;;;9.60;5.95;;;;;;;27.41;28.00;100777.16;5112521;28;20038;-75
2022/05/09 06:26:20;;;;;;;9.63;6.65;;;;;;;27.93;26.63;100779.94;5112362;28;20027;-75
2022/05/09 06:28:46;;;;;;;11.95;6.63;;;;;;;28.51;26.16;100787.34;5112516;28;20033;-75
2022/05/09 06:31:12;;;;;;;9.57;6.20;;;;;;;27.83;26.31;100790.75;5112228;28;20024;-75
2022/05/09 06:33:38;;;;;;;9.52;5.88;;;;;;;26.01;28.72;100779.91;5112591;28;20035;-75
2022/05/09 06:36:04;;;;;;;10.43;6.57;;;;;;;25.77;29.44;100784.84;5111869;28;20102;-76
2022/05/09 06:38:30;;;;;;;12.25;6.03;;;;;;;27.74;27.65;100783.66;5112417;28;20080;-75
2022/05/09 06:40:55;;;;;;;10.20;6.35;;;;;;;30.14;24.06;100784.13;5112330;28;20456;-76
2022/05/09 06:43:24;;;;;;;9.80;6.15;;;;;;;32.48;22.30;100795.44;5111880;28;20039;-76
2022/05/09 06:45:50;;;;;;;11.25;5.78;;;;;;;34.81;19.65;100789.47;5112175;28;20032;-74
2022/05/09 06:48:16;;;;;;;11.52;6.78;;;;;;;37.16;17.64;100802.47;5112195;28;20605;-74
2022/05/09 06:50:42;;;;;;;13.10;5.82;;;;;;;38.28;15.68;100791.78;5115684;28;20074;-74
2022/05/09 06:53:09;;;;;;;9.95;5.57;;;;;;;37.90;15.63;100790.91;5116301;28;20028;-74
2022/05/09 06:55:35;;;;;;;11.98;5.85;;;;;;;37.81;15.78;100785.94;5116437;28;20059;-74
2022/05/09 06:58:05;;;;;;;11.43;6.47;;;;;;;38.27;14.90;100790.13;5116067;28;20192;-74
2022/05/09 07:00:31;;;;;;;7.53;5.72;;;;;;;38.11;15.42;100786.09;5116319;28;20027;-74
2022/05/09 07:02:56;;;;;;;9.55;5.18;;;;;;;38.10;15.10;100798.88;5116042;28;20041;-73
2022/05/09 07:05:22;;;;;;;12.13;5.57;;;;;;;39.04;14.69;100794.00;5115842;28;20028;-74
2022/05/09 07:07:48;;;;;;;8.32;5.88;;;;;;;39.83;13.98;100789.25;5116187;28;20034;-74
2022/05/09 07:10:14;;;;;;;9.75;6.00;;;;;;;39.56;14.41;100791.53;5115892;28;20483;-74
2022/05/09 07:12:49;;;;;;;10.57;5.45;;;;;;;39.58;14.38;100792.16;5116012;28;20032;-74
2022/05/09 07:15:18;;;;;;;9.27;5.75;;;;;;;38.75;14.61;100795.63;5115648;28;20102;-74
2022/05/09 07:17:45;;;;;;;13.38;6.00;;;;;;;39.18;14.23;100800.91;5115827;28;20110;-74
2022/05/09 07:20:11;;;;;;;11.82;6.18;;;;;;;39.21;14.87;100798.78;5115777;28;20031;-74
2022/05/09 07:22:37;;;;;;;7.57;5.70;;;;;;;38.95;14.20;100794.56;5115419;28;20051;-74
2022/05/09 07:25:03;;;;;;;8.02;5.00;;;;;;;39.38;13.77;100797.09;5113455;28;20084;-74
2022/05/09 07:27:29;;;;;;;15.48;5.95;;;;;;;40.00;13.90;100791.25;5115460;28;20039;-74
2022/05/09 07:29:55;;;;;;;8.90;5.70;;;;;;;41.21;13.24;100807.69;5115388;28;20080;-75
2022/05/09 07:32:21;;;;;;;10.85;5.53;;;;;;;41.96;12.86;100795.56;5115164;28;20032;-75
2022/05/09 07:34:48;;;;;;;8.10;4.90;;;;;;;43.09;12.08;100798.69;5115429;28;20028;-75
2022/05/09 07:37:15;;;;;;;11.48;5.35;;;;;;;42.30;12.18;100783.47;5115413;28;20030;-74
2022/05/09 07:39:40;;;;;;;7.63;5.03;;;;;;;43.10;12.25;100794.84;5115104;28;20055;-74
2022/05/09 07:42:06;;;;;;;10.27;5.82;;;;;;;43.87;11.46;100787.25;5115241;28;20104;-74
2022/05/09 07:44:32;;;;;;;9.07;5.57;;;;;;;43.70;11.36;100791.00;5115324;28;20039;-77
2022/05/09 07:46:57;;;;;;;8.88;4.95;;;;;;;43.05;11.75;100797.53;5114919;28;20058;-75
2022/05/09 07:49:23;;;;;;;6.85;4.57;;;;;;;42.83;12.17;100784.69;5114991;28;20392;-74
2022/05/09 07:51:48;;;;;;;11.07;5.63;;;;;;;43.70;11.36;100776.44;5115389;28;20027;-75
2022/05/09 07:54:14;;;;;;;8.60;4.60;;;;;;;43.23;11.41;100788.09;5114338;28;20365;-74
2022/05/09 07:56:40;;;;;;;11.27;5.95;;;;;;;42.94;11.58;100779.28;5114125;28;20070;-74
2022/05/09 07:59:06;;;;;;;7.57;5.40;;;;;;;41.87;12.00;100785.06;5114152;28;20529;-74
2022/05/09 08:01:31;;;;;;;8.27;5.20;;;;;;;41.96;12.43;100787.38;5113407;28;20086;-75
2022/05/09 08:04:00;;;;;;;7.57;5.53;;;;;;;41.85;12.01;100794.63;5114025;27;20019;-73
2022/05/09 08:06:26;;;;;;;11.18;5.45;;;;;;;41.80;12.17;100798.09;5114607;28;20020;-74
2022/05/09 08:08:52;;;;;;;6.90;4.88;;;;;;;41.13;12.12;100793.38;5114386;28;20082;-73
2022/05/09 08:11:17;;;;;;;7.90;5.07;;;;;;;41.49;11.86;100794.00;5113534;28;20460;-74
2022/05/09 08:13:44;;;;;;;8.40;4.85;;;;;;;42.01;12.24;100787.44;5114176;28;20526;-74
2022/05/09 08:16:10;;;;;;;7.00;5.53;;;;;;;41.75;12.07;100773.34;5114299;28;20759;-75
2022/05/09 08:18:37;;;;;;;8.30;5.10;;;;;;;39.27;13.17;100776.91;5114847;28;20365;-75
2022/05/09 08:21:04;;;;;;;9.38;5.43;;;;;;;37.92;13.97;100791.50;5114651;28;20032;-74
2022/05/09 08:23:31;;;;;;;8.85;5.45;;;;;;;34.68;16.85;100791.09;5114478;28;20029;-74
2022/05/09 08:25:58;;;;;;;10.55;5.47;;;;;;;30.79;20.49;100768.66;5112573;28;20028;-74
2022/05/09 08:28:24;;;;;;;9.57;5.75;;;;;;;27.66;24.04;100786.25;5103109;28;20027;-73
2022/05/09 08:30:52;;;;;;;7.78;4.88;;;;;;;25.87;26.39;100780.31;5103239;28;20050;-74
2022/05/09 08:33:23;;;;;;;9.65;4.38;;;;;;;23.89;28.26;100781.84;5114202;28;20031;-74
2022/05/09 08:35:51;;;;;;;11.10;5.63;;;;;;;22.87;30.24;100793.69;5114407;27;20458;-75
2022/05/09 08:38:19;;;;;;;10.90;5.43;;;;;;;22.31;31.75;100793.72;5113944;28;20480;-74
2022/05/09 08:40:57;;;;;;;10.23;5.18;;;;;;;21.53;32.23;100796.09;5114170;28;20023;-74
2022/05/09 08:43:23;;;;;;;9.40;5.07;;;;;;;21.10;33.59;100799.22;5107175;27;20024;-74
2022/05/09 08:46:06;;;;;;;11.18;4.53;;;;;;;20.73;33.97;100793.06;5092256;28;20040;-75
2022/05/09 08:49:09;;;;;;;11.85;4.95;;;;;;;20.47;34.10;100803.66;5093830;28;20040;-74
2022/05/09 08:51:58;;;;;;;15.75;8.32;;;;;;;20.47;34.68;100801.00;5093477;28;20024;-74
2022/05/09 08:54:26;;;;;;;12.05;5.15;;;;;;;20.48;35.19;100797.47;5070457;28;20066;-75
2022/05/09 08:56:58;;;;;;;10.38;5.53;;;;;;;20.37;36.06;100799.97;5071004;28;20464;-74
2022/05/09 08:59:34;;;;;;;7.70;4.40;;;;;;;20.04;36.44;100798.66;5070620;28;20126;-74
2022/05/09 09:02:21;;;;;;;6.82;4.22;;;;;;;19.86;37.09;100795.47;5070560;28;20024;-74
2022/05/09 09:04:58;;;;;;;10.10;6.88;;;;;;;20.00;36.91;100791.88;5070289;28;20029;-74
2022/05/09 09:07:51;;;;;;;13.13;9.02;;;;;;;20.14;35.78;100804.16;5070426;28;20585;-74
2022/05/09 09:10:32;;;;;;;12.13;4.75;;;;;;;20.13;35.61;100810.41;5070234;28;20044;-74
2022/05/09 09:13:20;;;;;;;9.65;4.40;;;;;;;20.11;36.34;100801.75;5069514;28;20036;-74
2022/05/09 09:15:51;;;;;;;8.18;5.10;;;;;;;19.97;35.50;100810.59;5070506;28;20078;-73
2022/05/09 09:18:55;;;;;;;13.77;3.97;;;;;;;19.85;36.33;100808.81;5070163;28;20444;-74
2022/05/09 09:21:45;;;;;;;9.25;4.32;;;;;;;20.02;36.09;100811.16;5070287;28;20032;-74
2022/05/09 09:24:22;;;;;;;10.25;4.32;;;;;;;19.94;36.53;100814.31;5070056;28;20071;-73
2022/05/09 09:27:09;;;;;;;11.18;4.55;;;;;;;19.85;36.28;100804.34;5070066;28;20036;-75
2022/05/09 09:29:49;;;;;;;9.23;4.85;;;;;;;19.86;36.63;100800.75;5069993;28;20643;-75
2022/05/09 09:32:20;;;;;;;;;;;;;;;19.81;36.67;100810.81;5088324;28;20062;-74
2022/05/09 09:34:53;;;;;;;;;;;;;;;19.81;36.89;100802.03;5109684;28;19912;-76
2022/05/09 09:37:49;;;;;;;13.93;4.50;;;;;;;19.97;37.04;100802.66;5113037;28;19916;-75
2022/05/09 09:40:15;;;;;;;10.48;4.85;;;;;;;19.62;36.80;100787.38;5105995;28;20020;-74
2022/05/09 09:42:40;;;;;;;11.88;4.65;;;;;;;19.58;36.53;100795.56;5097517;28;20365;-75
2022/05/09 09:45:25;;;;;;;7.63;4.70;;;;;;;19.46;36.44;100778.72;5113390;28;20122;-75
2022/05/09 09:48:07;;;;;;;7.18;3.90;;;;;;;19.66;36.44;100806.53;5112803;28;20048;-75
2022/05/09 09:50:33;;;;;;;8.15;4.25;;;;;;;19.67;35.96;100789.72;5112981;28;20032;-75
2022/05/09 09:53:00;;;;;;;12.48;4.13;;;;;;;19.86;36.04;100795.47;5112953;28;20050;-74
2022/05/09 09:55:38;;;;;;;8.93;4.10;;;;;;;19.79;35.20;100790.69;5112639;28;20111;-75
2022/05/09 09:58:20;;;;;;;9.73;4.60;;;;;;;19.81;33.38;100800.22;5113032;28;20027;-75
2022/05/09 10:00:46;;;;;;;8.68;4.00;;;;;;;19.68;34.95;100779.06;5112987;28;20035;-75
2022/05/09 10:03:27;;;;;;;11.35;4.93;;;;;;;19.76;34.99;100789.09;5112043;28;20436;-75
2022/05/09 10:05:54;;;;;;;8.52;4.43;;;;;;;19.71;35.83;100780.63;5110971;28;20445;-75
2022/05/09 10:08:35;;;;;;;6.80;4.22;;;;;;;19.45;36.94;100771.75;5111983;28;20478;-75
2022/05/09 10:11:06;;;;;;;;;;;;;;;19.48;36.44;100782.13;5112990;28;20035;-75
2022/05/09 10:13:39;;;;;;;8.93;4.68;;;;;;;19.50;35.84;100774.94;5112404;28;20010;-75
2022/05/09 10:16:11;;;;;;;12.57;5.13;;;;;;;19.64;36.93;100782.00;5112518;28;20035;-74
2022/05/09 10:18:37;;;;;;;11.15;4.65;;;;;;;19.75;37.26;100776.81;5112459;28;20545;-75
2022/05/09 10:24:47;;;;;;;11.90;4.88;;;;;;;19.87;37.05;100775.16;5112337;28;20020;-74
2022/05/09 10:27:04;;;;;;;11.20;5.57;;;;;;;19.75;38.00;100773.34;5112656;28;20047;-75
2022/05/09 10:29:37;;;;;;;10.23;5.05;;;;;;;19.70;37.93;100768.38;5112037;28;20480;-74
2022/05/09 10:32:08;;;;;;;11.20;4.95;;;;;;;19.72;37.36;100761.19;5112362;28;20031;-75
2022/05/09 10:35:08;;;;;;;11.18;5.25;;;;;;;19.63;37.91;100770.56;5112194;28;20030;-75
2022/05/09 10:37:40;;;;;;;7.07;4.20;;;;;;;19.76;38.10;100775.88;5111500;28;20042;-74
2022/05/09 10:40:14;;;;;;;14.20;5.88;;;;;;;19.86;38.06;100750.53;5112356;28;20027;-74
2022/05/09 10:42:45;;;;;;;10.10;5.10;;;;;;;19.82;37.80;100766.69;5112402;28;20365;-74
2022/05/09 10:45:24;;;;;;;11.18;5.18;;;;;;;19.67;37.08;100779.13;5112308;28;20134;-75
2022/05/09 10:47:56;;;;;;;6.22;4.38;;;;;;;19.45;37.64;100775.25;5112100;28;20039;-75
2022/05/09 10:50:34;;;;;;;9.48;4.20;;;;;;;19.49;37.39;100756.56;5112040;28;20023;-75
2022/05/09 10:53:20;;;;;;;10.13;4.70;;;;;;;19.74;37.23;100775.16;5111936;28;20031;-75
2022/05/09 10:56:16;;;;;;;9.30;4.20;;;;;;;19.85;35.30;100770.00;5110067;28;20387;-74
2022/05/09 10:58:56;;;;;;;11.50;4.57;;;;;;;20.10;35.10;100765.66;5111432;28;20027;-74
2022/05/09 11:01:30;;;;;;;8.77;4.30;;;;;;;20.16;34.12;100749.38;5111843;28;20020;-74
2022/05/09 11:03:56;;;;;;;9.27;4.03;;;;;;;20.29;34.37;100734.34;5112350;28;20107;-74
2022/05/09 11:06:47;;;;;;;7.97;4.07;;;;;;;20.56;32.98;100754.53;5111797;28;20020;-75
2022/05/09 11:09:19;;;;;;;11.00;3.83;;;;;;;20.58;32.61;100758.78;5029213;28;20094;-75
2022/05/09 11:11:59;;;;;;;6.47;3.90;;;;;;;20.57;31.89;100753.63;5029212;28;20034;-75
2022/05/09 11:14:40;;;;;;;6.85;3.28;;;;;;;20.52;32.22;100748.66;5028796;28;20493;-75
2022/05/09 11:17:30;;;;;;;8.75;4.28;;;;;;;20.21;34.93;100743.75;5029037;28;20473;-74
2022/05/09 11:20:20;;;;;;;8.70;4.47;;;;;;;20.18;35.48;100740.41;5028971;28;20132;-75
2022/05/09 11:23:09;;;;;;;9.40;4.70;;;;;;;20.05;35.62;100747.47;5028966;28;20512;-75
2022/05/09 11:25:42;;;;;;;7.40;4.17;;;;;;;19.70;36.43;100752.50;5028771;28;20033;-75
2022/05/09 11:28:29;;;;;;;9.75;5.32;;;;;;;19.63;36.89;100736.19;5028995;28;20386;-75
2022/05/09 11:31:22;;;;;;;8.50;4.53;;;;;;;19.75;36.63;100744.25;5029021;28;20038;-75
2022/05/09 11:34:03;;;;;;;9.40;4.05;;;;;;;19.80;36.16;100735.06;5028863;28;20033;-74
2022/05/09 11:36:34;;;;;;;8.45;4.20;;;;;;;19.89;35.58;100738.91;5031455;28;20029;-75
2022/05/09 11:39:18;;;;;;;7.03;4.57;;;;;;;19.83;35.58;100720.81;5032324;28;20045;-74
2022/05/09 11:41:46;;;;;;;10.65;5.38;;;;;;;19.76;35.35;100745.94;5032362;28;20448;-75